Time;durP1;ratioP1;P1;durP2;ratioP2;P2;SDS_P1;SDS_P2;PMS_P1;PMS_P2;Temp;Humidity;BMP_temperature;BMP_pressure;BME280_temperature;BME280_humidity;BME280_pressure;Samples;Min_cycle;Max_cycle;Signal;HPM_P1;HPM_P2
2023/04/16 00:00:07;;;;;;;;;;;;;;;12.18;36.90;97843.88;5029554;28;19927;-60
2023/04/16 00:02:32;;;;;;;;;;;;;;;12.18;36.56;97837.88;5067735;28;19960;-59
2023/04/16 00:04:57;;;;;;;;;;;;;;;12.16;36.64;97839.84;5026454;28;20007;-59
2023/04/16 00:07:23;;;;;;;;;;;;;;;12.09;36.13;97847.53;5040077;28;19921;-59
2023/04/16 00:09:48;;;;;;;;;;;;;;;12.03;36.31;97845.59;5042698;28;19921;-59
2023/04/16 00:12:13;;;;;;;;;;;;;;;12.15;36.46;97846.03;5043713;28;19928;-59
2023/04/16 00:14:39;;;;;;;;;;;;;;;12.07;36.45;97849.50;5054749;28;20907;-59
2023/04/16 00:17:06;;;;;;;;;;;;;;;12.05;37.48;97843.66;5062238;28;20645;-60
2023/04/16 00:19:31;;;;;;;;;;;;;;;12.06;37.06;97833.03;5058215;28;19964;-59
2023/04/16 00:21:59;;;;;;;;;;;;;;;12.01;39.12;97840.59;5043310;28;20058;-59
2023/04/16 00:24:29;;;;;;;;;;;;;;;11.72;41.54;97838.59;5040240;28;19920;-60
2023/04/16 00:26:56;;;;;;;;;;;;;;;11.69;42.44;97836.34;5056176;28;19924;-60
2023/04/16 00:29:21;;;;;;;;;;;;;;;11.64;42.58;97841.22;5055709;28;19920;-59
2023/04/16 00:31:47;;;;;;;;;;;;;;;11.46;42.41;97838.88;5060964;28;19927;-58
2023/04/16 00:34:12;;;;;;;;;;;;;;;11.34;42.72;97841.03;5075005;28;19921;-59
2023/04/16 00:36:37;;;;;;;;;;;;;;;11.30;43.02;97842.38;5059949;28;19946;-59
2023/04/16 00:39:02;;;;;;;;;;;;;;;11.33;43.12;97847.22;5044576;28;19931;-59
2023/04/16 00:41:31;;;;;;;;;;;;;;;11.39;42.85;97850.94;5058234;28;20272;-59
2023/04/16 00:43:56;;;;;;;;;;;;;;;11.39;43.53;97850.94;5060034;28;19946;-59
2023/04/16 00:46:23;;;;;;;;;;;;;;;11.35;44.58;97846.06;5062330;28;19920;-59
2023/04/16 00:48:48;;;;;;;;;;;;;;;11.11;44.60;97844.34;5026379;28;20015;-59
2023/04/16 00:51:13;;;;;;;;;;;;;;;11.06;45.07;97843.22;5033041;28;20007;-59
2023/04/16 00:53:40;;;;;;;;;;;;;;;11.13;45.31;97844.19;5026602;28;19927;-59
2023/04/16 00:56:06;;;;;;;;;;;;;;;11.04;45.91;97847.78;5056465;28;19932;-58
2023/04/16 00:58:32;;;;;;;;;;;;;;;11.13;46.03;97846.78;5028848;28;20236;-59
2023/04/16 01:00:57;;;;;;;;;;;;;;;11.10;46.40;97850.53;5044048;28;20465;-59
2023/04/16 01:03:24;;;;;;;;;;;;;;;10.85;46.54;97847.16;5028408;28;19951;-60
2023/04/16 01:05:49;;;;;;;;;;;;;;;10.84;47.09;97848.16;5041367;28;20007;-62
2023/04/16 01:08:18;;;;;;;;;;;;;;;10.80;47.67;97852.03;5026486;28;20517;-59
2023/04/16 01:10:45;;;;;;;;;;;;;;;10.80;47.90;97848.66;5042283;28;20046;-60
2023/04/16 01:13:11;;;;;;;;;;;;;;;10.83;48.96;97853.53;5038213;28;19925;-60
2023/04/16 01:15:36;;;;;;;;;;;;;;;10.50;48.56;97843.94;5043609;28;19974;-60
2023/04/16 01:18:02;;;;;;;;;;;;;;;10.60;48.38;97848.16;5025066;28;19925;-59
2023/04/16 01:20:27;;;;;;;;;;;;;;;10.70;48.11;97854.03;5040633;28;20538;-59
2023/04/16 01:23:07;;;;;;;;;;;;;;;10.65;49.73;97856.31;5047842;28;19916;-60
2023/04/16 01:25:32;;;;;;;;;;;;;;;10.46;48.31;97849.63;5039222;28;19924;-59
2023/04/16 01:28:00;;;;;;;;;;;;;;;10.19;49.16;97852.34;5043651;28;19925;-59
2023/04/16 01:30:25;;;;;;;;;;;;;;;10.44;50.54;97848.97;5026640;28;19948;-59
2023/04/16 01:32:50;;;;;;;;;;;;;;;10.47;49.92;97852.06;5042061;28;19921;-59
2023/04/16 01:35:17;;;;;;;;;;;;;;;10.48;50.39;97843.31;5045336;28;20406;-59
2023/04/16 01:37:42;;;;;;;;;;;;;;;10.51;50.42;97852.56;5043529;28;20317;-59
2023/04/16 01:40:08;;;;;;;;;;;;;;;10.45;50.18;97845.41;5043810;28;20037;-59
2023/04/16 01:42:33;;;;;;;;;;;;;;;10.46;51.60;97852.22;5060890;28;19927;-59
2023/04/16 01:44:58;;;;;;;;;;;;;;;10.43;51.22;97847.38;5060665;28;20333;-59
2023/04/16 01:47:23;;;;;;;;;;;;;;;10.27;51.08;97848.94;5031133;28;19943;-59
2023/04/16 01:49:49;;;;;;;;;;;;;;;10.15;52.46;97848.44;5045535;28;20382;-59
2023/04/16 01:52:17;;;;;;;;;;;;;;;10.14;52.55;97843.41;5042909;28;19923;-59
2023/04/16 01:54:42;;;;;;;;;;;;;;;10.00;52.60;97844.84;5061730;28;19925;-60
2023/04/16 01:57:08;;;;;;;;;;;;;;;10.02;52.66;97848.13;5042192;28;20025;-60
2023/04/16 01:59:33;;;;;;;;;;;;;;;9.90;53.38;97857.19;5060335;28;19920;-59
2023/04/16 02:02:00;;;;;;;;;;;;;;;9.92;52.96;97857.81;5046715;28;19912;-59
2023/04/16 02:04:28;;;;;;;;;;;;;;;10.00;52.85;97847.44;5033436;28;19998;-60
2023/04/16 02:06:53;;;;;;;;;;;;;;;9.92;53.33;97848.25;5041634;28;19935;-59
2023/04/16 02:09:18;;;;;;;;;;;;;;;9.97;53.32;97853.78;5044232;28;19912;-59
2023/04/16 02:11:49;;;;;;;;;;;;;;;9.96;52.74;97851.34;5050621;28;19947;-59
2023/04/16 02:14:16;;;;;;;;;;;;;;;9.96;52.80;97840.94;5040353;28;19912;-59
2023/04/16 02:16:44;;;;;;;;;;;;;;;9.96;53.41;97846.13;5051897;28;19931;-59
2023/04/16 02:19:09;;;;;;;;;;;;;;;9.79;53.52;97848.69;5052256;28;19917;-59
2023/04/16 02:21:35;;;;;;;;;;;;;;;9.65;53.22;97864.06;5053418;28;20301;-59
2023/04/16 02:24:05;;;;;;;;;;;;;;;9.58;54.02;97862.13;5047897;28;19920;-59
2023/04/16 02:26:31;;;;;;;;;;;;;;;9.55;54.07;97859.81;5044791;28;20386;-59
2023/04/16 02:28:56;;;;;;;;;;;;;;;9.52;53.68;97857.53;5050079;28;19921;-59
2023/04/16 02:31:22;;;;;;;;;;;;;;;9.55;54.14;97865.00;5067592;28;19920;-59
2023/04/16 02:33:47;;;;;;;;;;;;;;;9.42;51.85;97859.44;5054356;28;19928;-59
2023/04/16 02:36:12;;;;;;;;;;;;;;;9.29;52.12;97856.44;5035655;28;20379;-59
2023/04/16 02:38:37;;;;;;;;;;;;;;;9.29;51.80;97857.28;5063104;28;19998;-59
2023/04/16 02:41:05;;;;;;;;;;;;;;;9.37;51.65;97857.31;5047019;28;19959;-59
2023/04/16 02:43:30;;;;;;;;;;;;;;;9.47;51.19;97858.97;5048447;28;19971;-59
2023/04/16 02:45:58;;;;;;;;;;;;;;;9.33;51.92;97856.00;5041426;28;20396;-59
2023/04/16 02:48:23;;;;;;;;;;;;;;;9.18;52.66;97862.72;5068425;28;19931;-60
2023/04/16 02:50:48;;;;;;;;;;;;;;;9.17;52.90;97863.69;5070255;28;20302;-59
2023/04/16 02:53:16;;;;;;;;;;;;;;;9.24;52.44;97862.13;5067842;28;19973;-59
2023/04/16 02:55:48;;;;;;;;;;;;;;;9.13;52.86;97858.00;5049713;28;19924;-59
2023/04/16 02:58:14;;;;;;;;;;;;;;;9.28;52.94;97853.06;5084100;28;19946;-62
2023/04/16 03:00:39;;;;;;;;;;;;;;;9.13;52.79;97852.81;5055327;28;19924;-59
2023/04/16 03:03:04;;;;;;;;;;;;;;;9.14;52.73;97861.41;5049782;28;20002;-59
2023/04/16 03:05:30;;;;;;;;;;;;;;;9.02;53.20;97859.06;5063048;28;19920;-59
2023/04/16 03:07:56;;;;;;;;;;;;;;;9.23;52.22;97861.28;5084500;28;19928;-59
2023/04/16 03:10:22;;;;;;;;;;;;;;;9.31;52.98;97865.72;5066525;28;19932;-59
2023/04/16 03:12:49;;;;;;;;;;;;;;;9.22;53.94;97858.88;5068547;28;20298;-59
2023/04/16 03:15:15;;;;;;;;;;;;;;;9.26;54.03;97862.78;5058451;28;20487;-60
2023/04/16 03:17:40;;;;;;;;;;;;;;;9.33;54.49;97862.97;5046125;28;19920;-58
2023/04/16 03:20:10;;;;;;;;;;;;;;;9.17;55.09;97863.69;5048466;28;20320;-59
2023/04/16 03:22:38;;;;;;;;;;;;;;;9.20;56.35;97855.63;5079258;28;19924;-59
2023/04/16 03:25:06;;;;;;;;;;;;;;;9.15;57.06;97868.22;5049480;28;19927;-59
2023/04/16 03:27:31;;;;;;;;;;;;;;;9.10;57.89;97868.69;5068664;28;19924;-59
2023/04/16 03:29:59;;;;;;;;;;;;;;;9.00;57.58;97868.00;5084664;28;20404;-59
2023/04/16 03:32:24;;;;;;;;;;;;;;;8.93;58.67;97872.97;5052557;28;19946;-59
2023/04/16 03:34:52;;;;;;;;;;;;;;;8.97;58.69;97881.25;5046366;28;19931;-59
2023/04/16 03:37:17;;;;;;;;;;;;;;;8.91;58.82;97876.66;5050995;28;19920;-59
2023/04/16 03:39:43;;;;;;;;;;;;;;;9.03;58.49;97888.41;5063727;28;19931;-59
2023/04/16 03:42:08;;;;;;;;;;;;;;;9.00;58.86;97875.75;5065805;28;19920;-58
2023/04/16 03:44:33;;;;;;;;;;;;;;;9.07;59.02;97870.75;5079968;28;19924;-58
2023/04/16 03:46:59;;;;;;;;;;;;;;;9.02;58.82;97876.41;5084608;28;20688;-59
2023/04/16 03:49:26;;;;;;;;;;;;;;;8.87;59.54;97880.53;5065473;28;20438;-59
2023/04/16 03:51:52;;;;;;;;;;;;;;;9.00;59.96;97889.53;5049960;28;20486;-59
2023/04/16 03:54:17;;;;;;;;;;;;;;;8.94;60.08;97889.31;5063682;28;19920;-59
2023/04/16 03:56:45;;;;;;;;;;;;;;;8.94;60.33;97894.50;5084545;28;20003;-59
2023/04/16 03:59:10;;;;;;;;;;;;;;;8.90;60.37;97886.22;5082961;28;19927;-59
2023/04/16 04:01:35;;;;;;;;;;;;;;;8.70;61.21;97888.19;5064927;28;19925;-59
2023/04/16 04:04:01;;;;;;;;;;;;;;;8.62;61.52;97886.34;5076902;28;19921;-59
2023/04/16 04:06:26;;;;;;;;;;;;;;;8.60;62.28;97888.28;5064429;28;19959;-59
2023/04/16 04:08:54;;;;;;;;;;;;;;;8.78;61.65;97888.25;5068012;28;19923;-59
2023/04/16 04:11:21;;;;;;;;;;;;;;;8.73;61.66;97887.09;5080243;28;19920;-59
2023/04/16 04:13:47;;;;;;;;;;;;;;;8.54;62.07;97890.63;5051021;28;19927;-59
2023/04/16 04:16:13;;;;;;;;;;;;;;;8.56;63.73;97888.72;5067609;28;19999;-59
2023/04/16 04:18:38;;;;;;;;;;;;;;;8.55;63.34;97887.91;5066306;28;20345;-59
2023/04/16 04:21:04;;;;;;;;;;;;;;;8.43;63.60;97889.91;5066643;28;19928;-59
2023/04/16 04:23:30;;;;;;;;;;;;;;;8.31;63.85;97895.44;5064962;28;19963;-59
2023/04/16 04:25:58;;;;;;;;;;;;;;;8.44;63.99;97898.50;5065354;28;19924;-59
2023/04/16 04:28:23;;;;;;;;;;;;;;;8.49;64.55;97900.63;5044492;28;20280;-59
2023/04/16 04:30:49;;;;;;;;;;;;;;;8.44;64.43;97895.91;5065411;28;19930;-59
2023/04/16 04:33:14;;;;;;;;;;;;;;;8.24;65.16;97897.78;5067912;28;20002;-59
2023/04/16 04:35:39;;;;;;;;;;;;;;;8.02;65.88;97906.81;5064512;28;20034;-59
2023/04/16 04:38:05;;;;;;;;;;;;;;;8.11;66.39;97902.53;5080674;28;20058;-59
2023/04/16 04:40:30;;;;;;;;;;;;;;;8.12;66.38;97899.78;5065405;28;20188;-58
2023/04/16 04:42:55;;;;;;;;;;;;;;;8.17;66.54;97901.94;5063990;28;20010;-59
2023/04/16 04:45:24;;;;;;;;;;;;;;;8.10;67.43;97906.88;5065317;28;20007;-59
2023/04/16 04:47:51;;;;;;;;;;;;;;;7.71;68.33;97914.88;5065122;28;19959;-59
2023/04/16 04:50:17;;;;;;;;;;;;;;;7.92;67.68;97917.19;5066437;28;19959;-59
2023/04/16 04:52:42;;;;;;;;;;;;;;;7.57;69.26;97915.34;5064989;28;19956;-59
2023/04/16 04:55:07;;;;;;;;;;;;;;;7.38;70.82;97916.22;5049002;28;20332;-59
2023/04/16 04:57:33;;;;;;;;;;;;;;;7.56;71.36;97922.28;5065173;28;19951;-59
2023/04/16 04:59:58;;;;;;;;;;;;;;;7.63;70.40;97925.09;5080869;28;19924;-59
2023/04/16 05:02:23;;;;;;;;;;;;;;;7.69;70.04;97925.34;5052670;28;19982;-59
2023/04/16 05:04:49;;;;;;;;;;;;;;;7.82;71.00;97924.22;5048040;28;21612;-59
2023/04/16 05:07:17;;;;;;;;;;;;;;;7.85;71.17;97932.50;5049532;28;20005;-59
2023/04/16 05:09:45;;;;;;;;;;;;;;;7.78;71.38;97933.22;5060989;28;20448;-59
2023/04/16 05:12:10;;;;;;;;;;;;;;;7.76;71.60;97929.94;5082202;28;19920;-59
2023/04/16 05:14:35;;;;;;;;;;;;;;;7.70;72.35;97933.91;5041747;28;20362;-59
2023/04/16 05:17:00;;;;;;;;;;;;;;;7.65;71.79;97929.19;5078228;28;19951;-59
2023/04/16 05:19:26;;;;;;;;;;;;;;;7.36;73.83;97929.28;5065410;28;19920;-59
2023/04/16 05:21:51;;;;;;;;;;;;;;;7.48;73.33;97929.94;5066777;28;20411;-59
2023/04/16 05:24:16;;;;;;;;;;;;;;;7.51;73.37;97927.88;5049286;28;19921;-58
2023/04/16 05:26:42;;;;;;;;;;;;;;;7.57;73.23;97930.84;5068041;28;20333;-59
2023/04/16 05:29:07;;;;;;;;;;;;;;;7.69;73.01;97935.69;5076595;28;20007;-59
2023/04/16 05:31:35;;;;;;;;;;;;;;;7.75;73.62;97936.09;5050158;28;19946;-59
2023/04/16 05:34:02;;;;;;;;;;;;;;;7.69;74.05;97933.13;5082180;28;19989;-59
2023/04/16 05:36:28;;;;;;;;;;;;;;;7.83;73.88;97936.19;5078369;28;19943;-59
2023/04/16 05:38:53;;;;;;;;;;;;;;;7.77;73.52;97936.75;5067194;28;20338;-58
2023/04/16 05:41:18;;;;;;;;;;;;;;;7.23;75.50;97941.72;5062685;28;19950;-58
2023/04/16 05:43:44;;;;;;;;;;;;;;;7.06;76.67;97941.50;5068618;28;20279;-58
2023/04/16 05:46:09;;;;;;;;;;;;;;;7.20;77.14;97934.25;5065367;28;20532;-58
2023/04/16 05:48:37;;;;;;;;;;;;;;;7.32;77.00;97946.88;5079822;28;19924;-58
2023/04/16 05:51:04;;;;;;;;;;;;;;;7.34;78.02;97941.56;5049007;28;19924;-58
2023/04/16 05:53:30;;;;;;;;;;;;;;;7.53;77.25;97953.59;5088357;28;19931;-58
2023/04/16 05:55:55;;;;;;;;;;;;;;;7.54;78.08;97957.84;5044197;28;19954;-59
2023/04/16 05:58:23;;;;;;;;;;;;;;;7.51;80.06;97960.69;5060233;28;19935;-58
2023/04/16 06:00:48;;;;;;;;;;;;;;;7.46;81.88;97963.69;5071162;28;19931;-59
2023/04/16 06:03:13;;;;;;;;;;;;;;;7.46;83.43;97968.88;5080565;28;19920;-58
2023/04/16 06:05:38;;;;;;;;;;;;;;;7.53;83.21;97965.72;5051615;28;20365;-58
2023/04/16 06:08:04;;;;;;;;;;;;;;;7.58;82.94;97956.59;5066022;28;19927;-58
2023/04/16 06:10:29;;;;;;;;;;;;;;;7.64;80.23;97957.78;5086697;28;19920;-58
2023/04/16 06:12:55;;;;;;;;;;;;;;;7.73;79.41;97956.94;5050217;28;19958;-58
2023/04/16 06:15:20;;;;;;;;;;;;;;;7.72;79.32;97960.50;5053242;28;20411;-58
2023/04/16 06:17:45;;;;;;;;;;;;;;;7.71;79.22;97958.84;5057217;28;19993;-58
2023/04/16 06:20:11;;;;;;;;;;;;;;;7.75;77.81;97965.38;5056867;28;19928;-58
2023/04/16 06:22:36;;;;;;;;;;;;;;;7.76;76.46;97968.75;5068682;28;19965;-59
2023/04/16 06:25:01;;;;;;;;;;;;;;;7.86;73.25;97969.53;5061166;28;19927;-58
2023/04/16 06:27:26;;;;;;;;;;;;;;;7.87;74.62;97971.19;5066828;28;19943;-59
2023/04/16 06:29:55;;;;;;;;;;;;;;;7.85;71.46;97975.69;5049915;28;19927;-59
2023/04/16 06:32:23;;;;;;;;;;;;;;;7.86;70.31;97975.53;5058472;28;19926;-58
2023/04/16 06:34:48;;;;;;;;;;;;;;;7.96;68.97;97974.66;5051183;28;19934;-58
2023/04/16 06:37:14;;;;;;;;;;;;;;;8.08;67.90;97976.13;5062681;28;19916;-58
2023/04/16 06:39:39;;;;;;;;;;;;;;;8.11;68.11;97975.84;5084339;28;19924;-58
2023/04/16 06:42:05;;;;;;;;;;;;;;;8.19;68.92;97981.09;5068752;28;19927;-58
2023/04/16 06:44:30;;;;;;;;;;;;;;;8.35;70.38;97979.66;5083605;28;20256;-58
2023/04/16 06:46:56;;;;;;;;;;;;;;;8.40;70.75;97973.06;5068435;28;19970;-58
2023/04/16 06:49:21;;;;;;;;;;;;;;;8.43;71.03;97974.56;5032576;28;19925;-58
2023/04/16 06:51:46;;;;;;;;;;;;;;;8.31;72.89;97975.75;5049458;28;19932;-59
2023/04/16 06:54:11;;;;;;;;;;;;;;;8.21;73.96;97974.03;5047972;28;19947;-60
2023/04/16 06:56:37;;;;;;;;;;;;;;;8.17;73.56;97970.06;5044652;28;19924;-58
2023/04/16 06:59:02;;;;;;;;;;;;;;;8.31;73.57;97970.56;5043174;28;19927;-59
2023/04/16 07:01:30;;;;;;;;;;;;;;;8.45;74.17;97972.66;5069990;28;20335;-58
2023/04/16 07:03:56;;;;;;;;;;;;;;;8.48;75.38;97967.19;5048356;28;19935;-58
2023/04/16 07:06:21;;;;;;;;;;;;;;;8.60;74.83;97970.38;5061289;28;19920;-59
2023/04/16 07:08:46;;;;;;;;;;;;;;;8.63;76.43;97968.31;5045466;28;20433;-59
2023/04/16 07:11:12;;;;;;;;;;;;;;;8.65;76.23;97971.56;5045306;28;20352;-58
2023/04/16 07:13:37;;;;;;;;;;;;;;;8.71;76.74;97974.53;5046690;28;19943;-59
2023/04/16 07:16:02;;;;;;;;;;;;;;;8.57;77.70;97976.66;5048228;28;19920;-59
2023/04/16 07:18:28;;;;;;;;;;;;;;;8.49;76.72;97976.59;5075366;28;19932;-59
2023/04/16 07:20:55;;;;;;;;;;;;;;;8.43;76.15;97972.81;5047015;28;20024;-58
2023/04/16 07:23:21;;;;;;;;;;;;;;;8.56;75.90;97972.47;5031968;28;19964;-58
2023/04/16 07:25:46;;;;;;;;;;;;;;;8.63;76.17;97975.25;5047280;28;19955;-58
2023/04/16 07:28:11;;;;;;;;;;;;;;;8.70;76.34;97978.09;5061324;28;20377;-59
2023/04/16 07:30:37;;;;;;;;;;;;;;;8.71;75.95;97975.34;5048351;28;19921;-59
2023/04/16 07:33:02;;;;;;;;;;;;;;;8.73;76.60;97968.25;5039989;28;20397;-58
2023/04/16 07:35:28;;;;;;;;;;;;;;;8.59;76.88;97966.97;5045318;28;20462;-58
2023/04/16 07:37:55;;;;;;;;;;;;;;;8.63;76.39;97976.09;5033416;28;20337;-58
2023/04/16 07:40:24;;;;;;;;;;;;;;;8.64;74.70;97971.72;5044320;28;19973;-58
2023/04/16 07:42:49;;;;;;;;;;;;;;;8.57;74.99;97968.88;5034713;28;19921;-58
2023/04/16 07:45:15;;;;;;;;;;;;;;;8.72;75.57;97968.38;5041582;28;20024;-59
2023/04/16 07:47:40;;;;;;;;;;;;;;;8.62;76.67;97969.28;5047060;28;19924;-59
2023/04/16 07:50:08;;;;;;;;;;;;;;;8.56;76.65;97969.03;5061509;28;20016;-60
2023/04/16 07:52:33;;;;;;;;;;;;;;;8.52;75.79;97965.91;5063437;28;19924;-59
2023/04/16 07:54:59;;;;;;;;;;;;;;;8.49;74.87;97970.59;5031963;28;20235;-59
2023/04/16 07:57:26;;;;;;;;;;;;;;;8.37;73.55;97969.97;5063942;28;19980;-59
2023/04/16 07:59:54;;;;;;;;;;;;;;;8.44;73.67;97971.03;5030370;28;19966;-58
2023/04/16 08:02:19;;;;;;;;;;;;;;;8.62;75.24;97971.06;5027684;28;20013;-59
2023/04/16 08:04:45;;;;;;;;;;;;;;;8.57;73.27;97968.09;5046777;28;20015;-59
2023/04/16 08:07:14;;;;;;;;;;;;;;;8.75;73.26;97970.69;5075560;28;20209;-59
2023/04/16 08:09:48;;;;;;;;;;;;;;;8.80;74.76;97971.88;5064578;28;19923;-58
2023/04/16 08:12:16;;;;;;;;;;;;;;;8.74;74.99;97972.44;5041451;28;19920;-58
2023/04/16 08:14:44;;;;;;;;;;;;;;;8.83;71.09;97978.53;5028409;28;20456;-59
2023/04/16 08:17:10;;;;;;;;;;;;;;;8.92;71.13;97980.22;5042349;28;19924;-59
2023/04/16 08:19:40;;;;;;;;;;;;;;;8.95;71.31;97979.13;5045581;28;19924;-59
2023/04/16 08:22:06;;;;;;;;;;;;;;;9.07;71.83;97975.31;5039893;28;19920;-59
2023/04/16 08:24:31;;;;;;;;;;;;;;;9.08;70.93;97976.94;5065259;28;19943;-59
2023/04/16 08:26:56;;;;;;;;;;;;;;;8.97;71.22;97987.56;5045441;28;19924;-60
2023/04/16 08:29:25;;;;;;;;;;;;;;;8.41;68.27;97917.69;5029963;28;19986;-60
2023/04/16 08:31:50;;;;;;;;;;;;;;;9.76;65.79;97985.81;5047244;28;20011;-59
2023/04/16 08:34:15;;;;;;;;;;;;;;;12.35;58.49;97979.31;5067545;28;20371;-60
2023/04/16 08:36:41;;;;;;;;;;;;;;;14.38;47.88;97982.84;5055798;28;19928;-59
2023/04/16 08:39:06;;;;;;;;;;;;;;;15.46;43.11;97974.13;5043201;28;19921;-60
2023/04/16 08:41:35;;;;;;;;;;;;;;;16.36;41.02;97979.47;5033975;28;20459;-60
2023/04/16 08:44:04;;;;;;;;;;;;;;;16.93;39.93;97977.38;5045089;28;20016;-60
2023/04/16 08:46:29;;;;;;;;;;;;;;;17.27;38.46;97976.38;5048092;28;19929;-59
2023/04/16 08:48:55;;;;;;;;;;;;;;;17.40;38.37;97970.31;5060750;28;19924;-58
2023/04/16 08:51:23;;;;;;;;;;;;;;;17.28;38.50;97970.09;5039199;28;20306;-60
2023/04/16 08:53:51;;;;;;;;;;;;;;;16.48;40.12;97973.44;5051171;28;19920;-62
2023/04/16 08:56:19;;;;;;;;;;;;;;;15.49;41.61;97971.13;5055514;28;19927;-59
2023/04/16 08:58:44;;;;;;;;;;;;;;;15.04;42.06;97974.03;5035950;28;19997;-60
2023/04/16 09:01:10;;;;;;;;;;;;;;;14.78;44.00;97983.28;5045782;28;20358;-59
2023/04/16 09:03:35;;;;;;;;;;;;;;;14.60;45.84;97978.47;5067576;28;19970;-60
2023/04/16 09:06:04;;;;;;;;;;;;;;;14.43;45.67;97974.41;5073554;28;19942;-60
2023/04/16 09:08:32;;;;;;;;;;;;;;;14.12;46.00;97941.50;5061666;28;19931;-60
2023/04/16 09:10:59;;;;;;;;;;;;;;;14.31;44.67;97970.66;5025761;28;19939;-59
2023/04/16 09:13:25;;;;;;;;;;;;;;;14.28;45.33;97971.84;5075694;28;19931;-59
2023/04/16 09:15:53;;;;;;;;;;;;;;;14.51;44.50;97982.16;5069195;28;19925;-59
2023/04/16 09:18:22;;;;;;;;;;;;;;;14.89;43.82;97974.09;5061241;28;20039;-59
2023/04/16 09:20:50;;;;;;;;;;;;;;;14.68;45.37;97977.53;5041365;28;20017;-60
2023/04/16 09:23:16;;;;;;;;;;;;;;;14.54;46.47;97980.97;5041697;28;19931;-60
2023/04/16 09:25:41;;;;;;;;;;;;;;;14.48;46.64;97973.88;5060123;28;19920;-59
2023/04/16 09:28:09;;;;;;;;;;;;;;;14.46;46.89;97976.69;5059529;28;19923;-60
2023/04/16 09:30:36;;;;;;;;;;;;;;;14.75;45.14;97978.41;5043089;28;19991;-59
2023/04/16 09:33:16;;;;;;;;;;;;;;;14.81;45.60;97969.00;5045546;28;19924;-58
2023/04/16 09:35:45;;;;;;;;;;;;;;;14.88;46.48;97974.31;5077211;28;19928;-59
2023/04/16 09:38:11;;;;;;;;;;;;;;;14.81;46.48;97974.22;5059863;28;19931;-59
2023/04/16 09:40:36;;;;;;;;;;;;;;;14.95;47.18;97975.19;5042474;28;19928;-60
2023/04/16 09:43:06;;;;;;;;;;;;;;;15.05;48.26;97970.41;5044462;28;20396;-59
2023/04/16 09:45:32;;;;;;;;;;;;;;;15.24;47.81;97973.38;5041715;28;20670;-58
2023/04/16 09:48:01;;;;;;;;;;;;;;;15.35;46.70;97978.09;5026241;28;19924;-59
2023/04/16 09:50:28;;;;;;;;;;;;;;;15.37;47.49;97976.09;5028812;28;19928;-60
2023/04/16 09:52:53;;;;;;;;;;;;;;;15.36;47.97;97975.28;5038388;28;20011;-59
2023/04/16 09:55:22;;;;;;;;;;;;;;;15.45;48.06;97975.16;5037418;28;19925;-58
2023/04/16 09:57:47;;;;;;;;;;;;;;;15.47;46.34;97981.00;5041347;28;19929;-59
2023/04/16 10:00:17;;;;;;;;;;;;;;;15.49;47.40;97974.56;5047576;28;19923;-58
2023/04/16 10:02:42;;;;;;;;;;;;;;;15.49;47.64;97979.78;5058142;28;19935;-59
2023/04/16 10:05:07;;;;;;;;;;;;;;;15.57;46.76;97981.47;5043840;28;19929;-59
2023/04/16 10:07:34;;;;;;;;;;;;;;;15.65;46.90;97983.13;5041802;28;19921;-59
2023/04/16 10:10:00;;;;;;;;;;;;;;;15.73;47.99;97982.97;5040311;28;19920;-60
2023/04/16 10:12:26;;;;;;;;;;;;;;;15.83;47.25;97982.66;5045523;28;19931;-59
2023/04/16 10:14:51;;;;;;;;;;;;;;;15.81;47.14;97982.03;5053686;28;20747;-58
2023/04/16 10:17:16;;;;;;;;;;;;;;;15.85;47.52;97978.03;5040157;28;19995;-59
2023/04/16 10:19:42;;;;;;;;;;;;;;;15.86;46.74;97983.09;5060017;28;20286;-58
2023/04/16 10:22:08;;;;;;;;;;;;;;;15.81;46.95;97969.75;5034856;28;19928;-60
2023/04/16 10:24:35;;;;;;;;;;;;;;;15.82;46.41;97971.34;5046774;28;20010;-60
2023/04/16 10:27:08;;;;;;;;;;;;;;;15.83;47.29;97975.59;5038552;28;20314;-59
2023/04/16 10:29:33;;;;;;;;;;;;;;;15.92;47.16;97971.81;5029805;28;20551;-58
2023/04/16 10:32:00;;;;;;;;;;;;;;;15.93;46.95;97970.81;5043152;28;19928;-59
2023/04/16 10:34:27;;;;;;;;;;;;;;;15.97;47.62;97968.59;5060875;28;19924;-59
2023/04/16 10:36:53;;;;;;;;;;;;;;;15.94;46.16;97967.19;5040101;28;20399;-59
2023/04/16 10:39:22;;;;;;;;;;;;;;;16.10;46.85;97967.88;5026062;28;19972;-60
2023/04/16 10:41:48;;;;;;;;;;;;;;;16.14;46.35;97962.03;5059448;28;19924;-59
2023/04/16 10:44:15;;;;;;;;;;;;;;;16.23;46.37;97959.25;5074070;28;20584;-60
2023/04/16 10:46:42;;;;;;;;;;;;;;;16.25;46.66;97955.41;5022121;28;20031;-60
2023/04/16 10:49:20;;;;;;;;;;;;;;;16.28;46.44;97960.25;5063959;28;19931;-60
2023/04/16 10:51:55;;;;;;;;;;;;;;;16.35;45.93;97960.25;5041547;28;20035;-59
2023/04/16 10:54:24;;;;;;;;;;;;;;;16.40;45.83;97955.25;5060351;28;19929;-59
2023/04/16 10:56:50;;;;;;;;;;;;;;;16.34;45.72;97953.41;5062404;28;19928;-60
2023/04/16 10:59:19;;;;;;;;;;;;;;;16.31;45.29;97954.59;5071916;28;19928;-59
2023/04/16 11:01:47;;;;;;;;;;;;;;;16.27;44.36;97949.97;5044703;28;20023;-59
2023/04/16 11:04:19;;;;;;;;;;;;;;;16.07;44.92;97921.06;5044168;28;19923;-59
2023/04/16 11:07:02;;;;;;;;;;;;;;;16.31;44.62;97959.06;5066728;28;19929;-60
2023/04/16 11:09:46;;;;;;;;;;;;;;;16.42;45.28;97952.44;5062007;28;19920;-60
2023/04/16 11:12:13;;;;;;;;;;;;;;;16.50;45.21;97953.06;5063579;28;19920;-60
2023/04/16 11:14:40;;;;;;;;;;;;;;;16.55;44.20;97944.56;5025134;28;19932;-60
2023/04/16 11:17:08;;;;;;;;;;;;;;;16.60;44.24;97936.13;5039682;28;20708;-59
2023/04/16 11:19:37;;;;;;;;;;;;;;;16.52;43.57;97940.53;5057737;28;19927;-60
2023/04/16 11:22:02;;;;;;;;;;;;;;;16.61;44.35;97935.91;5042646;28;19924;-61
2023/04/16 11:24:29;;;;;;;;;;;;;;;16.57;44.79;97936.50;5029648;28;19924;-60
2023/04/16 11:26:55;;;;;;;;;;;;;;;16.50;44.92;97934.69;5059316;28;19935;-59
2023/04/16 11:29:21;;;;;;;;;;;;;;;16.51;44.71;97943.38;5036859;28;20450;-59
2023/04/16 11:31:51;;;;;;;;;;;;;;;16.50;44.78;97937.31;5026373;28;20028;-59
2023/04/16 11:34:17;;;;;;;;;;;;;;;16.51;44.67;97941.53;5037640;28;20296;-59
2023/04/16 11:36:45;;;;;;;;;;;;;;;16.69;44.67;97927.84;5060636;28;20445;-60
2023/04/16 11:39:10;;;;;;;;;;;;;;;16.94;42.74;97926.47;5035809;28;20728;-57
2023/04/16 11:41:46;;;;;;;;;;;;;;;16.72;44.24;97890.69;5074443;28;20074;-59
2023/04/16 11:44:18;;;;;;;;;;;;;;;16.91;43.71;97922.44;5035678;28;20403;-59
2023/04/16 11:46:43;;;;;;;;;;;;;;;16.97;43.63;97912.94;5043952;28;19921;-60
2023/04/16 11:49:09;;;;;;;;;;;;;;;17.05;43.49;97913.53;5036761;28;19932;-60
2023/04/16 11:51:41;;;;;;;;;;;;;;;17.27;43.48;97913.31;5057032;28;20019;-60
2023/04/16 11:54:07;;;;;;;;;;;;;;;17.37;42.96;97908.44;5021740;28;20295;-60
2023/04/16 11:56:34;;;;;;;;;;;;;;;17.48;43.01;97905.19;5057972;28;19925;-59
2023/04/16 11:59:09;;;;;;;;;;;;;;;17.51;42.77;97900.53;5040868;28;19925;-59
2023/04/16 12:01:35;;;;;;;;;;;;;;;17.49;40.14;97896.28;5055819;28;19943;-59
2023/04/16 12:04:01;;;;;;;;;;;;;;;17.68;36.53;97896.44;5028489;28;20410;-59
2023/04/16 12:06:27;;;;;;;;;;;;;;;17.58;37.82;97901.34;5056150;28;19931;-59
2023/04/16 12:08:53;;;;;;;;;;;;;;;17.91;33.92;97900.44;5042069;28;20050;-59
2023/04/16 12:11:20;;;;;;;;;;;;;;;17.96;31.81;97897.97;5058896;28;20054;-58
2023/04/16 12:14:05;;;;;;;;;;;;;;;18.15;33.44;97901.53;5040746;28;19924;-59
2023/04/16 12:16:30;;;;;;;;;;;;;;;18.17;32.21;97900.28;5061060;28;19940;-59
2023/04/16 12:19:00;;;;;;;;;;;;;;;18.17;33.01;97904.75;5040457;28;19936;-59
2023/04/16 12:21:37;;;;;;;;;;;;;;;18.04;30.19;97898.53;5038542;28;19973;-59
2023/04/16 12:24:02;;;;;;;;;;;;;;;18.08;30.72;97893.66;5043546;28;19921;-59
2023/04/16 12:26:34;;;;;;;;;;;;;;;18.12;30.94;97891.41;5041665;28;20743;-59
2023/04/16 12:29:13;;;;;;;;;;;;;;;17.97;31.24;97884.59;5041817;28;19924;-60
2023/04/16 12:31:38;;;;;;;;;;;;;;;18.03;32.73;97880.31;5019760;28;20609;-60
2023/04/16 12:34:03;;;;;;;;;;;;;;;18.06;31.90;97888.59;5043248;28;19920;-59
2023/04/16 12:36:30;;;;;;;;;;;;;;;18.04;32.27;97889.84;5040072;28;20016;-59
2023/04/16 12:38:55;;;;;;;;;;;;;;;18.04;31.27;97884.59;5040637;28;19955;-59
2023/04/16 12:41:20;;;;;;;;;;;;;;;18.11;32.10;97879.28;5036011;28;20015;-59
2023/04/16 12:43:46;;;;;;;;;;;;;;;18.18;30.94;97883.50;5041429;28;19978;-59
2023/04/16 12:46:11;;;;;;;;;;;;;;;18.14;30.76;97878.84;5040587;28;20001;-60
2023/04/16 12:48:38;;;;;;;;;;;;;;;18.23;31.59;97885.47;5061479;28;20020;-60